Time;durP1;ratioP1;P1;durP2;ratioP2;P2;SDS_P1;SDS_P2;PMS_P1;PMS_P2;Temp;Humidity;BMP_temperature;BMP_pressure;BME280_temperature;BME280_humidity;BME280_pressure;Samples;Min_cycle;Max_cycle;Signal;HPM_P1;HPM_P2
2021/12/09 16:01:37;;;;;;;133.95;94.50;;;;;;;7.66;100.00;99842.13;2631674;54;20179;-73
2021/12/09 16:15:13;;;;;;;48.50;29.05;;;;;;;18.53;100.00;99852.41;4691319;27;10002153;-51
2021/12/09 16:21:07;;;;;;;;;;;;;;;8.24;100.00;99857.84;5066635;28;19922;-71
2021/12/09 16:23:40;;;;;;;;;;;;;;;7.83;100.00;99852.75;5034101;28;19926;-75
2021/12/09 16:26:07;;;;;;;;;;;;;;;7.56;100.00;99845.69;5030814;28;20007;-70
2021/12/09 16:28:40;;;;;;;;;;;;;;;7.49;100.00;99844.13;5022014;28;20385;-70
2021/12/09 16:31:07;;;;;;;;;;;;;;;7.25;100.00;99842.84;5030591;28;20020;-69
2021/12/09 16:33:34;;;;;;;;;;;;;;;7.23;100.00;99836.19;5019974;28;20500;-71
2021/12/09 16:36:11;;;;;;;;;;;;;;;7.36;100.00;99838.47;5022436;28;20019;-70
2021/12/09 16:38:39;;;;;;;;;;;;;;;7.07;100.00;99840.66;5033526;28;20385;-71
2021/12/09 16:41:05;;;;;;;;;;;;;;;7.05;100.00;99849.94;5043538;28;19917;-70
2021/12/09 16:43:31;;;;;;;;;;;;;;;7.21;100.00;99848.00;5021320;28;19917;-70
2021/12/09 16:45:59;;;;;;;;;;;;;;;6.80;100.00;99833.47;5007754;28;20377;-70
2021/12/09 16:48:26;;;;;;;;;;;;;;;6.87;100.00;99830.81;5021851;28;20405;-69
2021/12/09 16:50:52;;;;;;;;;;;;;;;6.88;100.00;99830.00;5022793;28;19928;-70
2021/12/09 16:53:23;;;;;;;;;;;;;;;7.38;100.00;99829.16;5023170;28;19929;-70
2021/12/09 16:55:55;;;;;;;;;;;;;;;6.76;100.00;99830.16;5030760;28;19952;-69
2021/12/09 16:58:31;;;;;;;;;;;;;;;6.79;100.00;99822.53;5025983;28;19925;-69
2021/12/09 17:00:58;;;;;;;;;;;;;;;6.91;100.00;99819.00;5020727;28;19921;-70
2021/12/09 17:03:25;;;;;;;;;;;;;;;6.88;100.00;99821.56;5026903;28;20381;-69
2021/12/09 17:05:50;;;;;;;;;;;;;;;6.90;100.00;99830.78;5020048;28;20685;-70
2021/12/09 17:08:19;;;;;;;;;;;;;;;6.90;100.00;99830.78;5019802;28;19979;-69
2021/12/09 17:10:47;;;;;;;;;;;;;;;6.85;100.00;99827.50;5032800;28;19985;-69
2021/12/09 17:13:13;;;;;;;;;;;;;;;6.62;100.00;99824.50;5024168;28;20472;-69
2021/12/09 17:15:39;;;;;;;;;;;;;;;6.77;100.00;99838.59;5025751;28;19964;-70
2021/12/09 17:18:05;;;;;;;;;;;;;;;6.79;100.00;99845.25;5027351;28;19917;-69
2021/12/09 17:20:31;;;;;;;;;;;;;;;6.91;100.00;99840.03;5026143;28;19931;-70
2021/12/09 17:22:59;;;;;;;;;;;;;;;6.91;100.00;99834.97;5026141;28;20005;-67
2021/12/09 17:25:26;;;;;;;;;;;;;;;6.87;100.00;99833.34;5026692;28;19921;-66
2021/12/09 17:27:53;;;;;;;;;;;;;;;6.66;100.00;99841.25;5026289;28;20308;-71
2021/12/09 17:30:19;;;;;;;;;;;;;;;6.64;100.00;99842.97;5055840;28;20369;-69
2021/12/09 17:32:46;;;;;;;;;;;;;;;6.68;100.00;99854.72;5013605;28;19921;-69
2021/12/09 17:35:14;;;;;;;;;;;;;;;6.68;100.00;99846.28;5011103;28;19918;-68
2021/12/09 17:37:41;;;;;;;;;;;;;;;6.69;100.00;99846.28;5013314;28;19921;-69
2021/12/09 17:41:37;;;;;;;;;;;;;;;6.54;100.00;99836.38;5087593;27;19966;-66
2021/12/09 17:44:04;;;;;;;;;;;;;;;6.39;100.00;99831.56;5087745;28;19924;-67
2021/12/09 17:46:33;;;;;;;;;;;;;;;6.69;100.00;99828.59;5085432;28;20019;-69
2021/12/09 17:49:01;;;;;;;;;;;;;;;6.75;100.00;99835.25;5087867;28;19917;-69
2021/12/09 17:51:27;;;;;;;;;;;;;;;6.76;100.00;99835.22;5085546;28;20005;-68
2021/12/09 17:53:57;;;;;;;;;;;;;;;6.45;100.00;99830.63;5088486;28;20396;-70
2021/12/09 17:56:25;;;;;;;;;;;;;;;6.22;100.00;99827.59;5087456;28;20393;-70
2021/12/09 17:58:51;;;;;;;;;;;;;;;6.15;100.00;99826.84;5088291;28;19920;-70
2021/12/09 18:01:17;;;;;;;;;;;;;;;6.21;100.00;99814.13;5088193;28;20014;-68
2021/12/09 18:03:45;;;;;;;;;;;;;;;6.43;100.00;99812.16;5087154;28;20444;-70
2021/12/09 18:06:11;;;;;;;;;;;;;;;6.36;100.00;99805.53;5088268;28;19921;-68
2021/12/09 18:08:39;;;;;;;;;;;;;;;6.33;100.00;99800.50;5087675;28;19927;-70
2021/12/09 18:11:06;;;;;;;;;;;;;;;6.48;100.00;99805.34;5088391;28;19968;-69
2021/12/09 18:13:33;;;;;;;;;;;;;;;6.39;100.00;99791.16;5088183;28;20391;-68
2021/12/09 18:16:06;;;;;;;;;;;;;;;6.36;100.00;99778.56;5087703;28;20416;-68
2021/12/09 18:18:32;;;;;;;;;;;;;;;6.40;100.00;99782.72;5087059;28;20652;-69
2021/12/09 18:20:59;;;;;;;;;;;;;;;6.17;100.00;99774.66;5079228;28;20027;-68
2021/12/09 18:23:26;;;;;;;;;;;;;;;6.33;100.00;99755.91;5087410;28;19924;-65
2021/12/09 18:25:53;;;;;;;;;;;;;;;6.44;100.00;99760.81;5087962;28;19955;-69
2021/12/09 18:28:20;;;;;;;;;;;;;;;6.37;100.00;99774.38;5082836;28;19924;-66
2021/12/09 18:30:47;;;;;;;;;;;;;;;6.47;100.00;99764.13;5088032;28;20332;-69
2021/12/09 18:33:15;;;;;;;;;;;;;;;6.52;100.00;99759.81;5087758;28;19916;-69
2021/12/09 18:35:42;;;;;;;;;;;;;;;6.61;100.00;99744.56;5083571;28;19920;-70
2021/12/09 18:38:10;;;;;;;;;;;;;;;6.70;100.00;99741.88;5087905;28;20011;-68
2021/12/09 18:40:45;;;;;;;;;;;;;;;6.79;100.00;99735.84;5080131;28;19982;-69
2021/12/09 18:43:12;;;;;;;;;;;;;;;6.92;100.00;99729.69;5084637;28;19916;-70
2021/12/09 18:45:38;;;;;;;;;;;;;;;6.81;100.00;99741.69;4747633;27;10000581;-70
2021/12/09 18:48:05;;;;;;;;;;;;;;;7.06;100.00;99720.19;5095066;28;19924;-70
2021/12/09 18:50:34;;;;;;;;;;;;;;;7.07;100.00;99718.50;5077489;28;19927;-70
2021/12/09 18:53:00;;;;;;;;;;;;;;;7.18;100.00;99719.97;5068215;28;20387;-71
2021/12/09 18:55:27;;;;;;;;;;;;;;;7.32;100.00;99705.38;5067491;28;19955;-72
2021/12/09 18:57:56;;;;;;;;;;;;;;;7.32;100.00;99717.19;5067665;28;19920;-71
2021/12/09 19:00:23;;;;;;;;;;;;;;;7.36;100.00;99704.47;5068911;28;20011;-71
2021/12/09 19:02:49;;;;;;;;;;;;;;;7.30;100.00;99698.69;5068938;28;19923;-69
2021/12/09 19:05:16;;;;;;;;;;;;;;;7.23;100.00;99695.44;5068822;28;19998;-70
2021/12/09 19:07:43;;;;;;;;;;;;;;;7.40;100.00;99685.00;5069030;28;19990;-70
2021/12/09 19:10:12;;;;;;;;;;;;;;;7.48;100.00;99699.16;5069405;28;19924;-73
2021/12/09 19:12:37;;;;;;;;;;;;;;;7.62;100.00;99703.94;5067316;28;20011;-70
2021/12/09 19:15:07;;;;;;;;;;;;;;;7.64;100.00;99697.16;5068706;28;20051;-69
2021/12/09 19:17:42;;;;;;;;;;;;;;;7.62;100.00;99692.13;5068601;28;19960;-70
2021/12/09 19:20:09;;;;;;;;;;;;;;;7.58;100.00;99682.94;5068394;28;19920;-70
2021/12/09 19:22:35;;;;;;;;;;;;;;;7.68;100.00;99692.00;5057498;28;20395;-70
2021/12/09 19:25:01;;;;;;;;;;;;;;;7.81;100.00;99693.41;5067476;28;19970;-70
2021/12/09 19:27:26;;;;;;;;;;;;;;;7.76;100.00;99699.44;5069064;28;19928;-71
2021/12/09 19:29:52;;;;;;;;;;;;;;;7.66;100.00;99681.09;5068856;28;19954;-71
2021/12/09 19:32:19;;;;;;;;;;;;;;;7.77;100.00;99688.41;5068074;28;20956;-68
2021/12/09 19:34:45;;;;;;;;;;;;;;;7.77;100.00;99684.19;5068082;28;19920;-71
2021/12/09 19:37:10;;;;;;;;;;;;;;;7.90;100.00;99683.06;5067647;28;19942;-68
2021/12/09 19:39:37;;;;;;;;;;;;;;;7.80;100.00;99681.59;5066720;28;19924;-69
2021/12/09 19:42:03;;;;;;;;;;;;;;;7.69;100.00;99665.81;5064593;28;20388;-70
2021/12/09 19:44:28;;;;;;;;;;;;;;;7.55;100.00;99670.34;5059310;28;20031;-69
2021/12/09 19:46:54;;;;;;;;;;;;;;;7.61;100.00;99665.16;5067153;28;19921;-68
2021/12/09 19:49:20;;;;;;;;;;;;;;;7.69;100.00;99662.44;5067388;28;19955;-69
2021/12/09 19:51:46;;;;;;;;;;;;;;;7.67;100.00;99667.56;5066148;28;20026;-70
2021/12/09 19:54:14;;;;;;;;;;;;;;;7.72;100.00;99654.81;5067121;28;19931;-71
2021/12/09 19:57:01;;;;;;;;;;;;;;;7.71;100.00;99648.91;5060054;28;20055;-72
2021/12/09 19:59:28;;;;;;;;;;;;;;;7.73;100.00;99654.78;5052994;28;19916;-71
2021/12/09 20:01:54;;;;;;;;;;;;;;;7.76;100.00;99643.75;5048942;28;19936;-72
2021/12/09 20:04:22;;;;;;;;;;;;;;;7.80;100.00;99636.03;5048265;28;20047;-71
2021/12/09 20:06:48;;;;;;;;;;;;;;;7.93;100.00;99631.56;5047485;28;20321;-73
2021/12/09 20:09:16;;;;;;;;;;;;;;;7.99;100.00;99635.63;5049039;28;19964;-72
2021/12/09 20:11:45;;;;;;;;;;;;;;;8.04;100.00;99631.31;5064880;28;19975;-72
2021/12/09 20:14:13;;;;;;;;;;;;;;;8.05;100.00;99636.34;5048180;28;19920;-74
2021/12/09 20:16:41;;;;;;;;;;;;;;;8.13;100.00;99636.16;5064574;28;20320;-73
2021/12/09 20:19:06;;;;;;;;;;;;;;;8.16;100.00;99629.31;5063186;28;19928;-71
2021/12/09 20:21:32;;;;;;;;;;;;;;;8.35;100.00;99634.81;5066438;28;19921;-71
2021/12/09 20:24:00;;;;;;;;;;;;;;;8.43;100.00;99633.75;5068509;28;20027;-73
2021/12/09 20:26:29;;;;;;;;;;;;;;;8.44;100.00;99624.44;5067035;28;19931;-73
2021/12/09 20:28:57;;;;;;;;;;;;;;;8.52;100.00;99620.84;5067788;28;19920;-71
2021/12/09 20:31:24;;;;;;;;;;;;;;;8.58;100.00;99618.16;5066772;28;20379;-71
2021/12/09 20:33:49;;;;;;;;;;;;;;;8.68;100.00;99618.75;5067677;28;19975;-70
2021/12/09 20:36:15;;;;;;;;;;;;;;;8.64;100.00;99600.25;5066935;28;20017;-72
2021/12/09 20:38:43;;;;;;;;;;;;;;;8.71;100.00;99600.94;5067190;28;19983;-71
2021/12/09 20:41:12;;;;;;;;;;;;;;;8.65;100.00;99599.41;5066994;28;19947;-73
2021/12/09 20:43:40;;;;;;;;;;;;;;;8.68;100.00;99601.84;5066921;28;20033;-72
2021/12/09 20:46:07;;;;;;;;;;;;;;;8.79;100.00;99600.72;5047619;28;19929;-71
2021/12/09 20:48:33;;;;;;;;;;;;;;;8.87;100.00;99601.34;5049265;28;19931;-73
2021/12/09 20:50:59;;;;;;;;;;;;;;;8.81;100.00;99606.59;5066721;28;19985;-71
2021/12/09 20:53:25;;;;;;;;;;;;;;;8.83;100.00;99590.47;5062492;28;19925;-70
2021/12/09 20:55:52;;;;;;;;;;;;;;;8.82;100.00;99593.88;5063987;28;19928;-72
2021/12/09 20:58:20;;;;;;;;;;;;;;;8.77;100.00;99609.19;5066557;28;20404;-71
2021/12/09 21:00:49;;;;;;;;;;;;;;;8.85;100.00;99600.56;5066988;28;19949;-71
2021/12/09 21:03:15;;;;;;;;;;;;;;;8.87;100.00;99599.66;5063727;28;20772;-69
2021/12/09 21:05:41;;;;;;;;;;;;;;;8.84;100.00;99591.28;5063781;28;19931;-71
2021/12/09 21:08:08;;;;;;;;;;;;;;;8.90;100.00;99594.50;5065288;28;20289;-70
2021/12/09 21:10:40;;;;;;;;;;;;;;;8.91;100.00;99597.88;5060487;28;19928;-74
2021/12/09 21:13:12;;;;;;;;;;;;;;;8.93;100.00;99601.19;5064381;28;19979;-71
2021/12/09 21:15:38;;;;;;;;;;;;;;;8.91;100.00;99600.41;5066315;28;19925;-71
2021/12/09 21:18:05;;;;;;;;;;;;;;;8.99;100.00;99601.03;5066484;28;19924;-71
2021/12/09 21:20:34;;;;;;;;;;;;;;;9.06;100.00;99595.72;5066356;28;19924;-71
2021/12/09 21:23:00;;;;;;;;;;;;;;;9.02;100.00;99600.91;5061114;28;19935;-70
2021/12/09 21:25:25;;;;;;;;;;;;;;;9.12;100.00;99602.31;5064599;28;19918;-72
2021/12/09 21:27:52;;;;;;;;;;;;;;;9.02;100.00;99588.25;5067638;28;19920;-71
2021/12/09 21:30:18;;;;;;;;;;;;;;;9.00;100.00;99588.28;5066408;28;20376;-69
2021/12/09 21:32:43;;;;;;;;;;;;;;;9.04;100.00;99602.53;5062625;28;19920;-71
2021/12/09 21:35:13;;;;;;;;;;;;;;;8.90;100.00;99608.84;5069091;28;20470;-70
2021/12/09 21:37:41;;;;;;;;;;;;;;;9.04;100.00;99596.63;5070186;28;19917;-69
2021/12/09 21:40:08;;;;;;;;;;;;;;;8.98;100.00;99599.34;5069456;28;19932;-71
2021/12/09 21:42:34;;;;;;;;;;;;;;;9.00;100.00;99602.66;5070115;28;20386;-70
2021/12/09 21:45:00;;;;;;;;;;;;;;;9.11;100.00;99593.06;5070223;28;19923;-69
2021/12/09 21:47:25;;;;;;;;;;;;;;;9.13;100.00;99592.13;5070530;28;20007;-70
2021/12/09 21:49:51;;;;;;;;;;;;;;;9.16;100.00;99581.91;5070672;28;20015;-70
2021/12/09 21:52:17;;;;;;;;;;;;;;;9.17;100.00;99575.16;5068316;28;20382;-70
2021/12/09 21:54:43;;;;;;;;;;;;;;;9.08;100.00;99580.47;5064964;28;19917;-70
2021/12/09 21:57:08;;;;;;;;;;;;;;;9.02;100.00;99567.97;5070843;28;20315;-70
2021/12/09 21:59:37;;;;;;;;;;;;;;;9.06;100.00;99559.41;5070881;28;19974;-70
2021/12/09 22:02:04;;;;;;;;;;;;;;;9.07;100.00;99561.88;5070087;28;19943;-70
2021/12/09 22:04:30;;;;;;;;;;;;;;;9.14;100.00;99552.41;5064329;28;19920;-70
2021/12/09 22:06:56;;;;;;;;;;;;;;;9.22;100.00;99550.47;5067518;28;20384;-69
2021/12/09 22:09:22;;;;;;;;;;;;;;;9.16;100.00;99545.56;5070718;28;19924;-70
2021/12/09 22:11:47;;;;;;;;;;;;;;;9.32;100.00;99555.25;5068977;28;20384;-70
2021/12/09 22:14:13;;;;;;;;;;;;;;;9.38;100.00;99539.00;5064972;28;19917;-69
2021/12/09 22:16:45;;;;;;;;;;;;;;;9.15;100.00;99544.75;5068264;28;19924;-69
2021/12/09 22:19:11;;;;;;;;;;;;;;;9.09;100.00;99544.13;5070718;28;19917;-69
2021/12/09 22:21:37;;;;;;;;;;;;;;;9.01;100.00;99551.09;5070622;28;19943;-69
2021/12/09 22:24:05;;;;;;;56.67;42.47;;;;;;;9.01;100.00;99546.03;5069066;28;20402;-69
2021/12/09 22:26:33;;;;;;;69.07;44.40;;;;;;;8.88;100.00;99529.50;5070780;28;20021;-69
2021/12/09 22:29:04;;;;;;;61.78;40.78;;;;;;;8.77;100.00;99528.09;5072795;28;20491;-69
2021/12/09 22:31:31;;;;;;;38.65;26.25;;;;;;;8.74;100.00;99494.41;5073309;28;20404;-70
2021/12/09 22:33:58;;;;;;;48.28;31.58;;;;;;;8.73;100.00;99470.78;5071408;28;20037;-70
2021/12/09 22:36:24;;;;;;;44.28;28.42;;;;;;;9.04;100.00;99492.69;5073679;28;20518;-69
2021/12/09 22:38:50;;;;;;;70.78;39.90;;;;;;;8.87;100.00;99498.28;5073187;28;20036;-69
2021/12/09 22:41:16;;;;;;;71.97;41.40;;;;;;;8.87;100.00;99477.16;5072013;28;20067;-69
2021/12/09 22:43:42;;;;;;;42.58;28.48;;;;;;;9.06;100.00;99484.19;5070600;28;20032;-70
2021/12/09 22:46:08;;;;;;;43.78;29.30;;;;;;;9.05;100.00;99494.38;5067816;28;20082;-69
2021/12/09 22:48:35;;;;;;;48.22;31.52;;;;;;;9.02;100.00;99505.41;5071437;28;20021;-70
2021/12/09 22:51:05;;;;;;;45.05;28.88;;;;;;;9.06;100.00;99493.47;5067383;28;20025;-69
2021/12/09 22:53:40;;;;;;;41.97;28.10;;;;;;;9.12;100.00;99491.59;5072901;28;20028;-69
2021/12/09 22:56:08;;;;;;;51.55;31.40;;;;;;;9.13;100.00;99495.78;5071448;28;20017;-70
2021/12/09 22:58:41;;;;;;;46.63;30.98;;;;;;;9.09;100.00;99473.94;5072663;28;20025;-69
2021/12/09 23:01:11;;;;;;;46.25;30.20;;;;;;;9.08;100.00;99479.06;5071407;28;20039;-70
2021/12/09 23:03:39;;;;;;;43.05;29.40;;;;;;;8.42;100.00;99373.75;5070530;28;20137;-70
2021/12/09 23:06:11;;;;;;;44.03;30.10;;;;;;;9.11;100.00;99476.44;5072499;28;20019;-70
2021/12/09 23:08:46;;;;;;;43.25;28.98;;;;;;;9.08;100.00;99464.69;5070216;28;20094;-69
2021/12/09 23:11:21;;;;;;;44.35;28.05;;;;;;;9.10;100.00;99469.69;5071369;28;20060;-69
2021/12/09 23:13:54;;;;;;;43.28;28.08;;;;;;;9.11;100.00;99444.28;5072425;28;20024;-69
2021/12/09 23:16:19;;;;;;;41.85;28.35;;;;;;;9.17;100.00;99449.16;5068911;28;20025;-70
2021/12/09 23:18:46;;;;;;;42.70;27.95;;;;;;;9.17;100.00;99436.50;5072475;28;20480;-69
2021/12/09 23:21:12;;;;;;;46.30;29.92;;;;;;;9.27;100.00;99444.66;5072180;28;20020;-71
2021/12/09 23:23:38;;;;;;;44.92;28.73;;;;;;;9.31;100.00;99431.00;5072475;28;20119;-69
2021/12/09 23:26:04;;;;;;;42.40;27.27;;;;;;;9.36;100.00;99439.28;5072130;28;20489;-69
2021/12/09 23:28:36;;;;;;;46.70;25.88;;;;;;;9.42;100.00;99431.50;5070787;28;20033;-69
2021/12/09 23:31:08;;;;;;;40.80;25.88;;;;;;;9.42;100.00;99426.41;5071011;28;20036;-69
2021/12/09 23:33:35;;;;;;;35.72;22.42;;;;;;;9.61;100.00;99419.84;5072030;28;20499;-69
2021/12/09 23:36:01;;;;;;;36.33;20.17;;;;;;;9.76;100.00;99426.13;5071962;28;20025;-69
2021/12/09 23:38:28;;;;;;;37.15;22.13;;;;;;;9.46;100.00;99388.22;5071827;28;20048;-69
2021/12/09 23:40:56;;;;;;;34.03;21.48;;;;;;;9.63;100.00;99420.63;5071545;28;20055;-69
2021/12/09 23:43:23;;;;;;;31.58;19.73;;;;;;;9.69;100.00;99420.44;5071757;28;20489;-69
2021/12/09 23:45:50;;;;;;;33.30;19.92;;;;;;;9.65;100.00;99413.00;5072047;28;20475;-69
2021/12/09 23:48:18;;;;;;;31.40;19.40;;;;;;;9.70;100.00;99416.19;5069280;28;20017;-69
2021/12/09 23:50:48;;;;;;;38.28;19.38;;;;;;;9.46;100.00;99367.09;5071756;28;20021;-70
2021/12/09 23:53:14;;;;;;;31.65;18.40;;;;;;;9.75;100.00;99399.91;5071755;28;20024;-70
2021/12/09 23:55:42;;;;;;;34.42;19.00;;;;;;;9.67;100.00;99414.56;5071719;28;20710;-69
2021/12/09 23:58:09;;;;;;;35.03;19.25;;;;;;;9.70;100.00;99409.41;5071862;28;20016;-69
